createdAt,value
2017-11-10T00:02:07.983Z,7.30
2017-11-10T00:04:45.705Z,7.30
2017-11-10T00:07:19.298Z,7.30
2017-11-10T00:09:53.135Z,7.30
2017-11-10T00:12:26.836Z,7.40
2017-11-10T00:15:00.801Z,7.40
2017-11-10T00:17:35.456Z,7.40
2017-11-10T00:20:09.178Z,7.40
2017-11-10T00:22:45.059Z,7.40
2017-11-10T00:25:19.233Z,7.50
2017-11-10T00:27:55.361Z,7.40
2017-11-10T00:30:30.377Z,7.40
2017-11-10T00:33:08.475Z,7.40
2017-11-10T00:35:42.584Z,7.50
2017-11-10T00:38:16.505Z,7.50
2017-11-10T00:40:50.388Z,7.50
2017-11-10T00:43:24.296Z,7.50
2017-11-10T00:45:59.037Z,7.60
2017-11-10T00:48:32.740Z,7.50
2017-11-10T00:51:08.013Z,7.50
2017-11-10T00:53:42.159Z,7.60
2017-11-10T00:56:16.842Z,7.60
2017-11-10T00:58:52.990Z,7.60
2017-11-10T01:01:27.710Z,7.60
2017-11-10T01:04:02.234Z,7.60
2017-11-10T01:06:36.557Z,7.60
2017-11-10T01:09:11.025Z,7.60
2017-11-10T01:11:45.121Z,7.60
2017-11-10T01:14:20.278Z,7.60
2017-11-10T01:16:55.600Z,7.60
2017-11-10T01:19:29.313Z,7.60
2017-11-10T01:22:02.980Z,7.60
2017-11-10T01:24:36.793Z,7.70
2017-11-10T01:27:12.246Z,7.70
2017-11-10T01:29:45.802Z,7.60
2017-11-10T01:32:19.923Z,7.60
2017-11-10T01:34:53.795Z,7.60
2017-11-10T01:37:28.590Z,7.70
2017-11-10T01:40:02.582Z,7.70
2017-11-10T01:42:36.594Z,7.60
2017-11-10T01:45:10.485Z,7.60
2017-11-10T01:47:45.378Z,7.60
2017-11-10T01:50:19.028Z,7.60
2017-11-10T01:52:52.980Z,7.60
2017-11-10T01:55:26.730Z,7.70
2017-11-10T01:58:00.737Z,7.70
2017-11-10T02:00:35.059Z,7.70
2017-11-10T02:03:08.797Z,7.70
2017-11-10T02:05:42.754Z,7.70
2017-11-10T02:08:16.948Z,7.70
2017-11-10T02:10:51.568Z,7.70
2017-11-10T02:13:26.342Z,7.70
2017-11-10T02:15:59.898Z,7.70
2017-11-10T02:18:34.032Z,7.70
2017-11-10T02:21:08.110Z,7.80
2017-11-10T02:23:41.900Z,7.80
2017-11-10T02:26:16.329Z,7.80
2017-11-10T02:28:51.779Z,7.80
2017-11-10T02:31:26.203Z,7.80
2017-11-10T02:34:00.206Z,7.80
2017-11-10T02:36:34.875Z,7.80
2017-11-10T02:39:08.853Z,7.80
2017-11-10T02:41:46.537Z,7.80
2017-11-10T02:44:21.330Z,7.80
2017-11-10T02:46:55.446Z,7.70
2017-11-10T02:49:29.678Z,7.80
2017-11-10T02:52:03.742Z,7.80
2017-11-10T02:54:38.630Z,7.70
2017-11-10T02:57:13.198Z,7.80
2017-11-10T02:59:47.754Z,7.70
2017-11-10T03:02:22.472Z,7.70
2017-11-10T03:04:56.507Z,7.70
2017-11-10T03:07:30.776Z,7.70
2017-11-10T03:10:06.594Z,7.70
2017-11-10T03:12:40.671Z,7.70
2017-11-10T03:15:14.657Z,7.70
2017-11-10T03:17:49.474Z,7.60
2017-11-10T03:20:23.443Z,7.60
2017-11-10T03:22:57.244Z,7.60
2017-11-10T03:25:30.977Z,7.60
2017-11-10T03:30:43.336Z,7.50
2017-11-10T03:33:17.299Z,7.60
2017-11-10T03:35:51.734Z,7.60
2017-11-10T03:38:25.552Z,7.50
2017-11-10T03:41:01.916Z,7.60
2017-11-10T03:43:35.698Z,7.60
2017-11-10T03:46:12.891Z,7.60
2017-11-10T03:48:46.655Z,7.50
2017-11-10T03:51:20.702Z,7.50
2017-11-10T03:53:56.775Z,7.50
2017-11-10T03:56:30.836Z,7.50
2017-11-10T03:59:04.502Z,7.40
2017-11-10T04:01:38.310Z,7.40
2017-11-10T04:04:12.487Z,7.30
2017-11-10T04:06:46.418Z,7.30
2017-11-10T04:09:20.805Z,7.30
2017-11-10T04:11:55.043Z,7.30
2017-11-10T04:14:29.080Z,7.30
2017-11-10T04:17:02.827Z,7.30
2017-11-10T04:19:36.646Z,7.20
2017-11-10T04:22:11.175Z,7.30
2017-11-10T04:24:44.997Z,7.30
2017-11-10T04:27:20.386Z,7.30
2017-11-10T04:29:55.142Z,7.30
2017-11-10T04:35:13.705Z,7.30
2017-11-10T04:37:48.888Z,7.30
2017-11-10T04:40:24.749Z,7.30
2017-11-10T04:59:22.997Z,7.40
2017-11-10T05:02:02.881Z,7.40
2017-11-10T05:04:39.861Z,7.40
2017-11-10T05:07:16.809Z,7.40
2017-11-10T05:09:52.843Z,7.30
2017-11-10T05:12:28.438Z,7.30
2017-11-10T05:15:02.145Z,7.30
2017-11-10T05:25:49.244Z,7.30
2017-11-10T05:28:23.989Z,7.30
2017-11-10T05:30:58.122Z,7.30
2017-11-10T05:33:32.093Z,7.30
2017-11-10T05:36:07.532Z,7.30
2017-11-10T05:38:44.087Z,7.40
2017-11-10T05:41:18.886Z,7.40
2017-11-10T05:43:53.161Z,7.40
2017-11-10T05:46:26.990Z,7.40
2017-11-10T05:49:01.593Z,7.40
2017-11-10T05:51:36.107Z,7.40
2017-11-10T05:54:10.781Z,7.40
2017-11-10T05:56:46.915Z,7.40
2017-11-10T05:59:21.113Z,7.50
2017-11-10T06:01:54.826Z,7.40
2017-11-10T06:04:28.737Z,7.50
2017-11-10T06:07:04.607Z,7.50
2017-11-10T06:09:38.325Z,7.50
2017-11-10T06:12:12.074Z,7.50
2017-11-10T06:14:45.951Z,7.50
2017-11-10T06:17:19.978Z,7.50
2017-11-10T06:19:54.006Z,7.50
2017-11-10T06:22:27.858Z,7.50
2017-11-10T06:25:01.644Z,7.50
2017-11-10T06:27:35.362Z,7.50
2017-11-10T06:30:09.592Z,7.60
2017-11-10T06:32:43.395Z,7.60
2017-11-10T06:35:18.811Z,7.60
2017-11-10T06:37:54.072Z,7.60
2017-11-10T06:40:29.083Z,7.60
2017-11-10T06:43:05.755Z,7.60
2017-11-10T06:45:39.708Z,7.60
2017-11-10T06:48:15.408Z,7.60
2017-11-10T06:50:53.475Z,7.70
2017-11-10T06:53:27.417Z,7.60
2017-11-10T06:56:02.020Z,7.70
2017-11-10T07:01:24.559Z,7.70
2017-11-10T07:04:03.975Z,7.70
2017-11-10T07:06:42.175Z,7.70
2017-11-10T07:09:16.689Z,7.70
2017-11-10T07:11:54.646Z,7.70
2017-11-10T07:14:29.078Z,7.70
2017-11-10T07:17:04.389Z,7.70
2017-11-10T07:19:38.099Z,7.70
2017-11-10T07:22:15.590Z,7.70
2017-11-10T07:24:49.364Z,7.70
2017-11-10T07:27:23.776Z,7.70
2017-11-10T07:29:57.663Z,7.70
2017-11-10T07:32:32.185Z,7.70
2017-11-10T07:35:05.881Z,7.70
2017-11-10T07:37:40.035Z,7.70
2017-11-10T07:40:13.594Z,7.70
2017-11-10T07:42:47.217Z,7.80
2017-11-10T07:45:21.028Z,7.80
2017-11-10T07:47:55.448Z,7.80
2017-11-10T07:50:30.112Z,7.70
2017-11-10T07:55:42.076Z,7.70
2017-11-10T07:58:16.243Z,7.80
2017-11-10T08:00:50.493Z,7.80
2017-11-10T08:03:26.816Z,7.90
2017-11-10T08:06:00.791Z,7.90
2017-11-10T08:08:36.084Z,8.00
2017-11-10T08:13:49.531Z,8.00
2017-11-10T08:16:24.053Z,8.00
2017-11-10T08:18:58.452Z,8.00
2017-11-10T08:21:36.808Z,8.10
2017-11-10T08:24:11.378Z,8.10
2017-11-10T08:26:48.585Z,8.10
2017-11-10T08:29:23.481Z,8.10
2017-11-10T08:32:00.751Z,8.10
2017-11-10T08:34:34.842Z,8.10
2017-11-10T08:37:10.902Z,8.10
2017-11-10T08:39:46.485Z,8.10
2017-11-10T08:42:25.356Z,8.20
2017-11-10T08:45:01.941Z,8.10
2017-11-10T08:47:37.348Z,8.20
2017-11-10T08:52:50.047Z,8.30
2017-11-10T09:01:12.303Z,8.30
2017-11-10T09:07:00.384Z,8.30
2017-11-10T09:09:47.182Z,8.30
2017-11-10T09:12:38.658Z,8.30
2017-11-10T09:15:15.177Z,8.40
2017-11-10T09:17:49.059Z,8.40
2017-11-10T09:20:22.871Z,8.40
2017-11-10T09:22:58.390Z,8.40
2017-11-10T09:25:33.081Z,8.50
2017-11-10T09:28:12.658Z,8.50
2017-11-10T09:31:01.484Z,8.50
2017-11-10T09:33:41.624Z,8.60
2017-11-10T09:36:31.114Z,8.60
2017-11-10T09:39:10.359Z,8.60
2017-11-10T09:41:55.983Z,8.70
2017-11-10T09:44:48.677Z,8.70
2017-11-10T09:47:28.375Z,8.70
2017-11-10T09:50:07.989Z,8.70
2017-11-10T09:52:48.991Z,8.70
2017-11-10T09:55:26.166Z,8.70
2017-11-10T09:58:17.941Z,8.80
2017-11-10T10:00:57.226Z,8.80
2017-11-10T10:03:47.593Z,8.90
2017-11-10T10:09:17.859Z,9.00
2017-11-10T10:12:06.262Z,9.00
2017-11-10T10:14:47.142Z,9.10
2017-11-10T10:17:26.748Z,9.10
2017-11-10T10:20:00.603Z,9.20
2017-11-10T10:22:34.862Z,9.20
2017-11-10T10:25:08.742Z,9.20
2017-11-10T10:27:43.298Z,9.20
2017-11-10T10:30:17.854Z,9.20
2017-11-10T10:32:52.694Z,9.30
2017-11-10T10:35:26.347Z,9.30
2017-11-10T10:38:00.792Z,9.40
2017-11-10T10:40:34.500Z,9.40
2017-11-10T10:43:09.168Z,9.50
2017-11-10T10:45:42.942Z,9.50
2017-11-10T10:48:16.876Z,9.60
2017-11-10T10:50:54.523Z,9.70
2017-11-10T10:53:29.322Z,9.40
2017-11-10T10:56:04.167Z,9.50
2017-11-10T10:58:48.399Z,9.60
2017-11-10T11:01:24.895Z,9.50
2017-11-10T11:04:01.004Z,9.50
2017-11-10T11:06:37.442Z,9.50
2017-11-10T11:09:12.200Z,9.50
2017-11-10T11:11:46.765Z,9.50
2017-11-10T11:14:20.596Z,9.50
2017-11-10T11:16:55.084Z,9.50
2017-11-10T11:19:30.565Z,9.50
2017-11-10T11:22:05.062Z,9.50
2017-11-10T11:24:38.962Z,9.50
2017-11-10T11:27:12.716Z,9.50
2017-11-10T11:29:47.290Z,9.50
2017-11-10T11:32:21.036Z,9.50
2017-11-10T11:34:57.027Z,9.50
2017-11-10T11:37:30.718Z,9.50
2017-11-10T11:40:04.375Z,9.50
2017-11-10T11:42:38.024Z,9.60
2017-11-10T11:45:12.530Z,9.60
2017-11-10T11:47:46.483Z,9.50
2017-11-10T11:50:21.042Z,9.50
2017-11-10T11:52:55.419Z,9.50
2017-11-10T11:55:29.443Z,9.40
2017-11-10T11:58:04.010Z,9.20
2017-11-10T12:00:37.875Z,9.20
2017-11-10T12:03:13.723Z,9.20
2017-11-10T12:05:48.753Z,9.20
2017-11-10T12:08:22.713Z,9.20
2017-11-10T12:10:56.780Z,9.20
2017-11-10T12:13:32.128Z,9.10
2017-11-10T12:16:05.972Z,9.20
2017-11-10T12:18:40.559Z,9.20
2017-11-10T12:21:14.495Z,9.20
2017-11-10T12:23:48.160Z,9.20
2017-11-10T12:26:21.876Z,9.10
2017-11-10T12:28:55.701Z,9.20
2017-11-10T12:31:31.252Z,9.10
2017-11-10T12:34:05.785Z,9.10
2017-11-10T12:36:39.590Z,9.10
2017-11-10T12:39:14.184Z,9.00
2017-11-10T12:41:48.734Z,9.00
2017-11-10T12:44:22.516Z,9.00
2017-11-10T12:46:56.176Z,9.00
2017-11-10T12:49:30.123Z,8.90
2017-11-10T12:52:03.927Z,8.90
2017-11-10T12:54:37.639Z,8.90
2017-11-10T12:57:11.525Z,8.80
2017-11-10T12:59:45.233Z,8.80
2017-11-10T13:02:18.880Z,8.80
2017-11-10T13:04:52.521Z,8.80
2017-11-10T13:07:26.221Z,8.70
2017-11-10T13:09:59.980Z,8.70
2017-11-10T13:12:35.157Z,8.70
2017-11-10T13:15:09.810Z,8.60
2017-11-10T13:17:43.540Z,8.60
2017-11-10T13:20:17.324Z,8.60
2017-11-10T13:22:51.071Z,8.60
2017-11-10T13:25:24.805Z,8.50
2017-11-10T13:27:58.581Z,8.50
2017-11-10T13:30:32.954Z,8.50
2017-11-10T13:33:07.682Z,8.50
2017-11-10T13:35:42.011Z,8.50
2017-11-10T13:38:15.991Z,8.50
2017-11-10T13:40:50.546Z,8.50
2017-11-10T13:43:25.127Z,8.50
2017-11-10T13:45:58.899Z,8.50
2017-11-10T13:48:33.665Z,8.50
2017-11-10T13:51:07.509Z,8.50
2017-11-10T13:53:41.438Z,8.50
2017-11-10T13:56:15.915Z,8.50
2017-11-10T13:58:49.579Z,8.50
2017-11-10T14:01:23.452Z,8.50
2017-11-10T14:03:57.498Z,8.50
2017-11-10T14:06:32.105Z,8.50
2017-11-10T14:09:05.998Z,8.50
2017-11-10T14:14:21.939Z,8.60
2017-11-10T14:16:56.312Z,8.50
2017-11-10T14:19:32.735Z,8.50
2017-11-10T14:22:07.858Z,8.50
2017-11-10T14:24:41.650Z,8.60
2017-11-10T14:27:16.297Z,8.60
2017-11-10T14:29:51.728Z,8.60
2017-11-10T14:32:25.732Z,8.60
2017-11-10T14:34:59.747Z,8.60
2017-11-10T14:37:34.189Z,8.60
2017-11-10T14:40:10.195Z,8.60
2017-11-10T14:42:45.667Z,8.60
2017-11-10T14:45:19.220Z,8.60
2017-11-10T14:47:53.000Z,8.70
2017-11-10T14:50:26.786Z,8.70
2017-11-10T14:53:02.333Z,8.20
2017-11-10T14:55:36.324Z,7.90
2017-11-10T14:58:11.843Z,7.00
2017-11-10T15:00:47.507Z,7.00
2017-11-10T15:03:21.632Z,6.80
2017-11-10T15:05:56.107Z,6.60
2017-11-10T15:08:30.355Z,6.60
2017-11-10T15:11:04.488Z,6.50
2017-11-10T15:13:38.910Z,6.50
2017-11-10T15:16:13.616Z,6.50
2017-11-10T15:18:47.600Z,6.50
2017-11-10T15:21:21.666Z,6.40
2017-11-10T15:23:55.542Z,6.40
2017-11-10T15:26:31.086Z,6.50
2017-11-10T15:29:06.125Z,6.40
2017-11-10T15:31:40.950Z,6.40
2017-11-10T15:34:15.038Z,6.40
2017-11-10T15:36:48.895Z,6.40
2017-11-10T15:39:22.593Z,6.50
2017-11-10T15:41:56.480Z,6.50
2017-11-10T15:44:30.230Z,6.50
2017-11-10T15:47:04.910Z,6.50
2017-11-10T15:49:39.154Z,6.50
2017-11-10T15:52:13.662Z,6.50
2017-11-10T15:54:51.763Z,6.50
2017-11-10T15:57:26.352Z,6.50
2017-11-10T16:00:00.423Z,6.50
2017-11-10T16:02:34.110Z,6.50
2017-11-10T16:05:08.595Z,6.50
2017-11-10T16:07:43.124Z,6.50
2017-11-10T16:10:17.576Z,6.50
2017-11-10T16:12:51.540Z,6.50
2017-11-10T16:15:27.259Z,6.40
2017-11-10T16:18:01.245Z,6.40
2017-11-10T16:20:35.110Z,6.50
2017-11-10T16:23:10.450Z,6.50
2017-11-10T16:25:44.562Z,6.50
2017-11-10T16:28:18.996Z,6.50
2017-11-10T16:30:54.107Z,6.50
2017-11-10T16:33:28.325Z,6.50
2017-11-10T16:36:02.736Z,6.50
2017-11-10T16:38:38.010Z,6.40
2017-11-10T16:41:17.091Z,6.40
2017-11-10T16:43:54.389Z,6.30
2017-11-10T16:46:29.654Z,6.30
2017-11-10T16:49:05.506Z,6.30
2017-11-10T16:51:40.007Z,6.30
2017-11-10T16:54:14.446Z,6.30
2017-11-10T16:56:48.223Z,6.20
2017-11-10T16:59:21.930Z,6.20
2017-11-10T17:01:55.718Z,6.20
2017-11-10T17:04:30.645Z,6.20
2017-11-10T17:07:06.650Z,6.20
2017-11-10T17:09:41.806Z,6.20
2017-11-10T17:12:15.798Z,6.20
2017-11-10T17:14:49.770Z,6.20
2017-11-10T17:17:27.648Z,6.20
2017-11-10T17:20:02.895Z,6.20
2017-11-10T17:22:36.920Z,6.20
2017-11-10T17:25:11.669Z,6.30
2017-11-10T17:27:45.923Z,6.40
2017-11-10T17:30:19.984Z,6.30
2017-11-10T17:35:33.451Z,6.30
2017-11-10T17:38:07.926Z,6.30
2017-11-10T17:40:42.651Z,6.20
2017-11-10T17:43:16.574Z,6.10
2017-11-10T17:45:55.438Z,6.10
2017-11-10T17:48:29.565Z,6.10
2017-11-10T17:51:05.011Z,6.10
2017-11-10T17:53:39.574Z,6.10
2017-11-10T17:56:14.078Z,6.10
2017-11-10T17:58:47.739Z,6.10
2017-11-10T18:01:22.110Z,6.10
2017-11-10T18:03:56.436Z,6.10
2017-11-10T18:06:31.879Z,6.10
2017-11-10T18:09:06.923Z,6.00
2017-11-10T18:11:41.689Z,6.00
2017-11-10T18:14:18.607Z,6.10
2017-11-10T18:16:52.453Z,6.10
2017-11-10T18:19:26.234Z,6.10
2017-11-10T18:22:00.142Z,6.00
2017-11-10T18:24:34.561Z,5.10
2017-11-10T18:27:09.387Z,5.10
2017-11-10T18:29:43.319Z,4.80
2017-11-10T18:32:17.927Z,4.90
2017-11-10T18:34:52.447Z,4.90
2017-11-10T18:37:26.182Z,4.90
2017-11-10T18:40:00.050Z,5.30
2017-11-10T18:42:33.797Z,5.50
2017-11-10T18:45:08.542Z,5.50
2017-11-10T18:47:44.302Z,5.50
2017-11-10T18:50:17.988Z,5.60
2017-11-10T18:52:53.615Z,5.70
2017-11-10T18:55:39.923Z,5.70
2017-11-10T18:58:14.079Z,5.70
2017-11-10T19:00:49.422Z,5.60
2017-11-10T19:03:23.638Z,5.50
2017-11-10T19:05:57.251Z,5.50
2017-11-10T19:08:31.018Z,5.50
2017-11-10T19:11:04.802Z,5.50
2017-11-10T19:13:38.646Z,5.40
2017-11-10T19:16:13.641Z,5.50
2017-11-10T19:18:51.402Z,5.50
2017-11-10T19:21:25.238Z,5.40
2017-11-10T19:23:58.938Z,5.40
2017-11-10T19:26:32.754Z,5.40
2017-11-10T19:29:07.407Z,5.40
2017-11-10T19:31:41.775Z,5.30
2017-11-10T19:34:18.857Z,5.30
2017-11-10T19:36:52.632Z,5.30
2017-11-10T19:39:26.556Z,5.20
2017-11-10T19:42:00.874Z,5.20
2017-11-10T19:44:35.232Z,5.20
2017-11-10T19:47:09.063Z,5.20
2017-11-10T19:49:42.742Z,5.20
2017-11-10T19:52:16.701Z,5.20
2017-11-10T19:54:50.917Z,5.30
2017-11-10T19:57:24.919Z,5.20
2017-11-10T19:59:58.740Z,5.20
2017-11-10T20:02:33.311Z,5.20
2017-11-10T20:05:11.381Z,5.20
2017-11-10T20:07:45.998Z,5.30
2017-11-10T20:10:21.537Z,5.20
2017-11-10T20:12:56.981Z,5.10
2017-11-10T20:15:30.733Z,5.10
2017-11-10T20:18:04.755Z,5.10
2017-11-10T20:20:39.499Z,5.10
2017-11-10T20:23:14.144Z,5.10
2017-11-10T20:25:47.991Z,5.10
2017-11-10T20:28:21.860Z,5.10
2017-11-10T20:30:55.867Z,5.10
2017-11-10T20:33:30.918Z,5.10
2017-11-10T20:36:04.540Z,5.10
2017-11-10T20:38:39.077Z,5.10
2017-11-10T20:41:12.879Z,5.00
2017-11-10T20:43:46.573Z,5.00
2017-11-10T20:46:20.292Z,5.00
2017-11-10T20:48:54.057Z,5.00
2017-11-10T20:51:27.759Z,5.00
2017-11-10T20:54:02.503Z,4.90
2017-11-10T20:56:36.262Z,4.90
2017-11-10T20:59:10.987Z,4.90
2017-11-10T21:01:44.785Z,4.80
2017-11-10T21:04:18.555Z,4.80
2017-11-10T21:06:52.286Z,4.80
2017-11-10T21:09:26.331Z,4.70
2017-11-10T21:12:00.065Z,4.80
2017-11-10T21:14:34.249Z,4.70
2017-11-10T21:17:08.058Z,4.70
2017-11-10T21:19:41.916Z,4.60
2017-11-10T21:22:15.829Z,4.70
2017-11-10T21:24:49.568Z,4.70
2017-11-10T21:27:23.407Z,4.80
2017-11-10T21:29:57.042Z,4.70
2017-11-10T21:32:30.820Z,4.70
2017-11-10T21:35:04.534Z,4.70
2017-11-10T21:37:38.989Z,4.80
2017-11-10T21:40:15.174Z,4.80
2017-11-10T21:42:49.920Z,4.80
2017-11-10T21:45:26.885Z,4.70
2017-11-10T21:48:01.412Z,4.80
2017-11-10T21:50:35.068Z,4.90
2017-11-10T21:53:08.835Z,4.80
2017-11-10T21:55:42.532Z,4.70
2017-11-10T21:58:17.176Z,4.70
2017-11-10T22:00:56.078Z,4.70
2017-11-10T22:03:29.895Z,4.70
2017-11-10T22:06:03.499Z,4.60
2017-11-10T22:08:37.225Z,4.60
2017-11-10T22:11:11.727Z,4.70
2017-11-10T22:13:45.539Z,4.70
2017-11-10T22:16:19.215Z,4.60
2017-11-10T22:18:52.975Z,4.60
2017-11-10T22:21:26.735Z,4.60
2017-11-10T22:24:00.547Z,4.60
2017-11-10T22:26:34.989Z,4.60
2017-11-10T22:29:08.713Z,4.60
2017-11-10T22:31:42.382Z,4.60
2017-11-10T22:34:16.968Z,4.60
2017-11-10T22:36:50.663Z,4.60
2017-11-10T22:39:25.237Z,4.70
2017-11-10T22:41:59.745Z,4.70
2017-11-10T22:44:34.295Z,4.70
2017-11-10T22:47:07.999Z,4.60
2017-11-10T22:49:41.921Z,4.70
2017-11-10T22:52:15.696Z,4.70
2017-11-10T22:54:49.366Z,4.70
2017-11-10T22:57:23.133Z,4.70
2017-11-10T22:59:56.837Z,4.70
2017-11-10T23:02:30.735Z,4.70
2017-11-10T23:05:04.503Z,4.70
2017-11-10T23:07:39.343Z,4.60
2017-11-10T23:10:12.965Z,4.60
2017-11-10T23:12:47.597Z,4.60
2017-11-10T23:15:21.316Z,4.60
2017-11-10T23:17:54.930Z,4.60
2017-11-10T23:20:29.495Z,4.60
2017-11-10T23:23:03.187Z,4.60
2017-11-10T23:25:36.990Z,4.70
2017-11-10T23:28:11.535Z,4.60
2017-11-10T23:30:45.970Z,4.70
2017-11-10T23:33:19.757Z,4.70
2017-11-10T23:35:53.509Z,4.70
2017-11-10T23:38:27.295Z,4.80
2017-11-10T23:41:02.054Z,4.90
2017-11-10T23:43:35.816Z,4.80
2017-11-10T23:46:09.535Z,4.90
2017-11-10T23:48:44.139Z,4.90
2017-11-10T23:51:17.918Z,4.90
2017-11-10T23:53:52.016Z,4.90
2017-11-10T23:56:25.823Z,4.90
2017-11-10T23:58:59.598Z,4.90
